sensor_id;sensor_type;location;lat;lon;timestamp;pressure;altitude;pressure_sealevel;temperature;humidity
43281;BME280;62175;49.416;8.690;2023-04-27T00:00:42;100659.06;;;13.19;36.36
43281;BME280;62175;49.416;8.690;2023-04-27T00:03:09;100656.52;;;13.40;36.13
43281;BME280;62175;49.416;8.690;2023-04-27T00:05:37;100656.21;;;13.13;36.09
43281;BME280;62175;49.416;8.690;2023-04-27T00:08:05;100653.23;;;13.18;36.54
43281;BME280;62175;49.416;8.690;2023-04-27T00:10:32;100650.61;;;13.22;35.74
43281;BME280;62175;49.416;8.690;2023-04-27T00:13:00;100644.75;;;13.38;35.88
43281;BME280;62175;49.416;8.690;2023-04-27T00:15:27;100647.02;;;13.39;35.62
43281;BME280;62175;49.416;8.690;2023-04-27T00:17:54;100643.64;;;13.17;35.51
43281;BME280;62175;49.416;8.690;2023-04-27T00:20:22;100641.54;;;13.50;36.47
43281;BME280;62175;49.416;8.690;2023-04-27T00:22:49;100642.12;;;13.32;35.51
43281;BME280;62175;49.416;8.690;2023-04-27T00:25:16;100641.00;;;13.55;37.02
43281;BME280;62175;49.416;8.690;2023-04-27T00:27:43;100640.68;;;13.31;35.84
43281;BME280;62175;49.416;8.690;2023-04-27T00:30:11;100637.38;;;13.17;35.51
43281;BME280;62175;49.416;8.690;2023-04-27T00:32:38;100639.02;;;13.27;35.63
43281;BME280;62175;49.416;8.690;2023-04-27T00:35:06;100637.50;;;13.58;36.29
43281;BME280;62175;49.416;8.690;2023-04-27T00:37:33;100631.44;;;13.11;35.72
43281;BME280;62175;49.416;8.690;2023-04-27T00:40:00;100629.57;;;13.19;36.26
43281;BME280;62175;49.416;8.690;2023-04-27T00:42:29;100632.59;;;13.36;35.24
43281;BME280;62175;49.416;8.690;2023-04-27T00:44:56;100631.76;;;13.22;36.42
43281;BME280;62175;49.416;8.690;2023-04-27T00:47:24;100630.18;;;13.57;34.94
43281;BME280;62175;49.416;8.690;2023-04-27T00:49:51;100629.43;;;13.27;35.36
43281;BME280;62175;49.416;8.690;2023-04-27T00:52:18;100626.62;;;13.16;35.58
43281;BME280;62175;49.416;8.690;2023-04-27T00:54:50;100626.13;;;13.65;35.78
43281;BME280;62175;49.416;8.690;2023-04-27T00:57:18;100629.28;;;13.42;35.68
43281;BME280;62175;49.416;8.690;2023-04-27T00:59:45;100634.16;;;13.40;36.21
43281;BME280;62175;49.416;8.690;2023-04-27T01:02:12;100637.52;;;13.10;36.82
43281;BME280;62175;49.416;8.690;2023-04-27T01:04:40;100639.93;;;13.42;36.05
43281;BME280;62175;49.416;8.690;2023-04-27T01:07:06;100638.73;;;13.33;35.92
43281;BME280;62175;49.416;8.690;2023-04-27T01:09:34;100636.80;;;13.38;34.99
43281;BME280;62175;49.416;8.690;2023-04-27T01:12:01;100635.63;;;13.35;35.52
43281;BME280;62175;49.416;8.690;2023-04-27T01:14:28;100642.45;;;13.27;36.96
43281;BME280;62175;49.416;8.690;2023-04-27T01:16:55;100642.00;;;13.80;36.08
43281;BME280;62175;49.416;8.690;2023-04-27T01:19:22;100642.17;;;13.08;36.04
43281;BME280;62175;49.416;8.690;2023-04-27T01:21:49;100641.30;;;13.15;34.89
43281;BME280;62175;49.416;8.690;2023-04-27T01:24:17;100643.20;;;13.47;34.78
43281;BME280;62175;49.416;8.690;2023-04-27T01:26:44;100643.25;;;13.61;37.16
43281;BME280;62175;49.416;8.690;2023-04-27T01:29:11;100642.66;;;13.27;35.08
43281;BME280;62175;49.416;8.690;2023-04-27T01:31:38;100638.61;;;13.25;35.92
43281;BME280;62175;49.416;8.690;2023-04-27T01:34:05;100633.55;;;13.22;35.31
43281;BME280;62175;49.416;8.690;2023-04-27T01:36:33;100634.69;;;13.55;35.22
43281;BME280;62175;49.416;8.690;2023-04-27T01:39:00;100635.48;;;13.39;35.46
43281;BME280;62175;49.416;8.690;2023-04-27T01:41:27;100639.50;;;13.66;35.43
43281;BME280;62175;49.416;8.690;2023-04-27T01:43:54;100640.23;;;13.24;34.32
43281;BME280;62175;49.416;8.690;2023-04-27T01:46:21;100642.26;;;13.21;35.71
43281;BME280;62175;49.416;8.690;2023-04-27T01:48:48;100639.59;;;13.19;35.11
43281;BME280;62175;49.416;8.690;2023-04-27T01:51:15;100641.84;;;13.38;36.14
43281;BME280;62175;49.416;8.690;2023-04-27T01:53:43;100641.11;;;13.30;36.00
43281;BME280;62175;49.416;8.690;2023-04-27T01:56:10;100635.63;;;13.51;37.20
43281;BME280;62175;49.416;8.690;2023-04-27T01:58:37;100636.57;;;13.28;34.88
43281;BME280;62175;49.416;8.690;2023-04-27T02:01:04;100636.45;;;12.95;35.30
43281;BME280;62175;49.416;8.690;2023-04-27T02:03:31;100636.82;;;13.37;34.82
43281;BME280;62175;49.416;8.690;2023-04-27T02:05:58;100638.79;;;13.54;34.83
43281;BME280;62175;49.416;8.690;2023-04-27T02:08:26;100636.83;;;13.50;35.48
43281;BME280;62175;49.416;8.690;2023-04-27T02:10:53;100638.33;;;13.29;34.58
43281;BME280;62175;49.416;8.690;2023-04-27T02:13:20;100641.61;;;13.19;34.71
43281;BME280;62175;49.416;8.690;2023-04-27T02:15:47;100640.45;;;13.41;35.13
43281;BME280;62175;49.416;8.690;2023-04-27T02:18:15;100643.48;;;13.48;35.59
43281;BME280;62175;49.416;8.690;2023-04-27T02:20:42;100645.69;;;13.44;35.84
43281;BME280;62175;49.416;8.690;2023-04-27T02:23:09;100647.76;;;13.33;34.65
43281;BME280;62175;49.416;8.690;2023-04-27T02:25:36;100646.62;;;13.11;35.34
43281;BME280;62175;49.416;8.690;2023-04-27T02:28:03;100648.67;;;13.57;35.64
43281;BME280;62175;49.416;8.690;2023-04-27T02:30:31;100647.05;;;13.57;35.57
43281;BME280;62175;49.416;8.690;2023-04-27T02:33:03;100651.90;;;13.33;35.45
43281;BME280;62175;49.416;8.690;2023-04-27T02:35:30;100654.44;;;13.45;35.75
43281;BME280;62175;49.416;8.690;2023-04-27T02:37:57;100661.58;;;13.19;35.43
43281;BME280;62175;49.416;8.690;2023-04-27T02:40:24;100659.20;;;13.45;35.79
43281;BME280;62175;49.416;8.690;2023-04-27T02:42:51;100659.29;;;13.54;36.17
43281;BME280;62175;49.416;8.690;2023-04-27T02:45:19;100660.55;;;13.53;35.66
43281;BME280;62175;49.416;8.690;2023-04-27T02:47:46;100662.21;;;12.91;35.72
43281;BME280;62175;49.416;8.690;2023-04-27T02:50:13;100662.79;;;12.96;35.63
43281;BME280;62175;49.416;8.690;2023-04-27T02:52:40;100664.65;;;13.26;35.58
43281;BME280;62175;49.416;8.690;2023-04-27T02:55:08;100664.97;;;13.33;35.91
43281;BME280;62175;49.416;8.690;2023-04-27T02:57:35;100663.09;;;13.46;35.62
43281;BME280;62175;49.416;8.690;2023-04-27T03:00:03;100661.42;;;13.23;36.41
43281;BME280;62175;49.416;8.690;2023-04-27T03:02:30;100658.13;;;13.31;35.98
43281;BME280;62175;49.416;8.690;2023-04-27T03:04:57;100658.63;;;13.15;36.60
43281;BME280;62175;49.416;8.690;2023-04-27T03:07:24;100658.80;;;12.75;37.71
43281;BME280;62175;49.416;8.690;2023-04-27T03:09:52;100660.50;;;12.96;37.76
43281;BME280;62175;49.416;8.690;2023-04-27T03:12:19;100659.89;;;12.72;37.70
43281;BME280;62175;49.416;8.690;2023-04-27T03:14:46;100657.20;;;12.63;37.96
43281;BME280;62175;49.416;8.690;2023-04-27T03:17:13;100653.22;;;12.84;38.42
43281;BME280;62175;49.416;8.690;2023-04-27T03:19:41;100653.01;;;12.88;39.66
43281;BME280;62175;49.416;8.690;2023-04-27T03:22:08;100658.31;;;12.82;37.95
43281;BME280;62175;49.416;8.690;2023-04-27T03:24:35;100661.57;;;12.71;38.78
43281;BME280;62175;49.416;8.690;2023-04-27T03:27:02;100663.51;;;12.68;38.26
43281;BME280;62175;49.416;8.690;2023-04-27T03:29:30;100665.04;;;12.80;38.56
43281;BME280;62175;49.416;8.690;2023-04-27T03:31:57;100670.16;;;12.87;38.56
43281;BME280;62175;49.416;8.690;2023-04-27T03:34:24;100669.77;;;12.91;38.60
43281;BME280;62175;49.416;8.690;2023-04-27T03:36:52;100674.28;;;12.79;38.71
43281;BME280;62175;49.416;8.690;2023-04-27T03:39:19;100675.87;;;12.53;38.62
43281;BME280;62175;49.416;8.690;2023-04-27T03:41:47;100673.24;;;12.48;39.02
43281;BME280;62175;49.416;8.690;2023-04-27T03:44:14;100672.35;;;12.68;40.28
43281;BME280;62175;49.416;8.690;2023-04-27T03:46:41;100672.72;;;12.60;39.64
43281;BME280;62175;49.416;8.690;2023-04-27T03:49:08;100675.77;;;12.61;40.12
43281;BME280;62175;49.416;8.690;2023-04-27T03:51:35;100669.81;;;12.52;40.88
43281;BME280;62175;49.416;8.690;2023-04-27T03:54:03;100669.07;;;12.57;41.70
43281;BME280;62175;49.416;8.690;2023-04-27T03:56:30;100670.31;;;12.52;41.02
43281;BME280;62175;49.416;8.690;2023-04-27T03:58:58;100669.98;;;12.50;40.93
43281;BME280;62175;49.416;8.690;2023-04-27T04:01:24;100674.74;;;12.32;41.63
43281;BME280;62175;49.416;8.690;2023-04-27T04:03:52;100677.76;;;12.32;41.19
43281;BME280;62175;49.416;8.690;2023-04-27T04:06:19;100670.99;;;12.47;40.99
43281;BME280;62175;49.416;8.690;2023-04-27T04:08:46;100673.08;;;12.42;40.91
43281;BME280;62175;49.416;8.690;2023-04-27T04:11:13;100673.87;;;12.48;41.51
43281;BME280;62175;49.416;8.690;2023-04-27T04:13:41;100677.63;;;12.62;41.56
43281;BME280;62175;49.416;8.690;2023-04-27T04:16:09;100682.12;;;12.52;42.23
43281;BME280;62175;49.416;8.690;2023-04-27T04:18:36;100683.82;;;12.39;41.33
43281;BME280;62175;49.416;8.690;2023-04-27T04:21:03;100675.28;;;12.18;41.43
43281;BME280;62175;49.416;8.690;2023-04-27T04:23:30;100673.98;;;12.52;42.92
43281;BME280;62175;49.416;8.690;2023-04-27T04:25:58;100672.02;;;12.16;41.43
43281;BME280;62175;49.416;8.690;2023-04-27T04:28:25;100667.96;;;12.20;41.36
43281;BME280;62175;49.416;8.690;2023-04-27T04:30:52;100669.14;;;12.17;40.76
43281;BME280;62175;49.416;8.690;2023-04-27T04:33:19;100671.57;;;12.27;41.24
43281;BME280;62175;49.416;8.690;2023-04-27T04:35:46;100675.06;;;12.20;41.91
43281;BME280;62175;49.416;8.690;2023-04-27T04:38:14;100676.09;;;12.19;41.14
43281;BME280;62175;49.416;8.690;2023-04-27T04:40:41;100680.77;;;12.24;41.76
43281;BME280;62175;49.416;8.690;2023-04-27T04:43:08;100686.54;;;12.21;41.12
43281;BME280;62175;49.416;8.690;2023-04-27T04:45:36;100692.64;;;12.28;41.61
43281;BME280;62175;49.416;8.690;2023-04-27T04:48:04;100693.94;;;12.01;43.19
43281;BME280;62175;49.416;8.690;2023-04-27T04:50:31;100696.25;;;12.14;41.84
43281;BME280;62175;49.416;8.690;2023-04-27T04:52:58;100701.59;;;12.57;42.18
43281;BME280;62175;49.416;8.690;2023-04-27T04:55:25;100703.88;;;12.26;42.13
43281;BME280;62175;49.416;8.690;2023-04-27T04:57:53;100708.37;;;12.48;41.44
43281;BME280;62175;49.416;8.690;2023-04-27T05:00:20;100703.70;;;12.40;42.14
43281;BME280;62175;49.416;8.690;2023-04-27T05:02:47;100704.51;;;12.34;41.72
43281;BME280;62175;49.416;8.690;2023-04-27T05:05:14;100701.42;;;12.28;42.44
43281;BME280;62175;49.416;8.690;2023-04-27T05:07:42;100701.39;;;12.01;41.81
43281;BME280;62175;49.416;8.690;2023-04-27T05:10:09;100698.14;;;12.38;41.68
43281;BME280;62175;49.416;8.690;2023-04-27T05:12:36;100700.55;;;12.32;41.82
43281;BME280;62175;49.416;8.690;2023-04-27T05:15:04;100705.81;;;12.20;41.99
43281;BME280;62175;49.416;8.690;2023-04-27T05:17:32;100703.63;;;12.23;42.50
43281;BME280;62175;49.416;8.690;2023-04-27T05:19:59;100700.40;;;12.09;42.44
43281;BME280;62175;49.416;8.690;2023-04-27T05:22:26;100702.96;;;12.03;42.72
43281;BME280;62175;49.416;8.690;2023-04-27T05:24:53;100702.10;;;12.08;42.11
43281;BME280;62175;49.416;8.690;2023-04-27T05:27:20;100708.77;;;11.98;42.29
43281;BME280;62175;49.416;8.690;2023-04-27T05:29:48;100712.22;;;12.39;42.34
43281;BME280;62175;49.416;8.690;2023-04-27T05:32:15;100712.06;;;12.43;42.76
43281;BME280;62175;49.416;8.690;2023-04-27T05:34:43;100717.25;;;12.37;42.58
43281;BME280;62175;49.416;8.690;2023-04-27T05:37:10;100721.28;;;12.03;42.81
43281;BME280;62175;49.416;8.690;2023-04-27T05:39:38;100726.47;;;12.41;43.14
43281;BME280;62175;49.416;8.690;2023-04-27T05:42:05;100729.32;;;12.17;43.31
43281;BME280;62175;49.416;8.690;2023-04-27T05:44:33;100735.36;;;12.32;43.95
43281;BME280;62175;49.416;8.690;2023-04-27T05:47:00;100732.98;;;12.36;42.74
43281;BME280;62175;49.416;8.690;2023-04-27T05:49:27;100731.71;;;11.82;42.70
43281;BME280;62175;49.416;8.690;2023-04-27T05:51:54;100729.85;;;11.96;43.24
43281;BME280;62175;49.416;8.690;2023-04-27T05:54:21;100729.44;;;12.26;42.13
43281;BME280;62175;49.416;8.690;2023-04-27T05:56:49;100729.07;;;12.74;42.62
43281;BME280;62175;49.416;8.690;2023-04-27T05:59:16;100733.89;;;12.14;42.44
43281;BME280;62175;49.416;8.690;2023-04-27T06:01:43;100730.75;;;12.23;42.21
43281;BME280;62175;49.416;8.690;2023-04-27T06:04:11;100730.70;;;12.58;41.70
43281;BME280;62175;49.416;8.690;2023-04-27T06:06:37;100731.68;;;12.57;41.84
43281;BME280;62175;49.416;8.690;2023-04-27T06:09:05;100735.92;;;12.17;43.26
43281;BME280;62175;49.416;8.690;2023-04-27T06:11:32;100731.61;;;12.64;42.34
43281;BME280;62175;49.416;8.690;2023-04-27T06:13:59;100733.19;;;12.50;42.30
43281;BME280;62175;49.416;8.690;2023-04-27T06:16:27;100734.62;;;12.47;42.42
43281;BME280;62175;49.416;8.690;2023-04-27T06:18:54;100736.37;;;12.42;42.42
43281;BME280;62175;49.416;8.690;2023-04-27T06:21:21;100740.39;;;12.51;41.35
43281;BME280;62175;49.416;8.690;2023-04-27T06:23:48;100742.41;;;12.46;41.60
43281;BME280;62175;49.416;8.690;2023-04-27T06:26:15;100746.35;;;12.45;41.92
43281;BME280;62175;49.416;8.690;2023-04-27T06:28:42;100752.86;;;12.86;42.01
43281;BME280;62175;49.416;8.690;2023-04-27T06:31:09;100754.60;;;12.53;41.71
43281;BME280;62175;49.416;8.690;2023-04-27T06:33:37;100762.92;;;12.73;41.80
43281;BME280;62175;49.416;8.690;2023-04-27T06:36:04;100766.11;;;12.82;42.81
43281;BME280;62175;49.416;8.690;2023-04-27T06:38:31;100767.23;;;12.71;42.82
43281;BME280;62175;49.416;8.690;2023-04-27T06:40:58;100773.15;;;12.68;42.66
43281;BME280;62175;49.416;8.690;2023-04-27T06:43:26;100773.61;;;12.51;41.44
43281;BME280;62175;49.416;8.690;2023-04-27T06:45:53;100770.68;;;12.90;41.73
43281;BME280;62175;49.416;8.690;2023-04-27T06:48:20;100771.09;;;13.04;42.06
43281;BME280;62175;49.416;8.690;2023-04-27T06:50:48;100772.16;;;12.92;41.64
43281;BME280;62175;49.416;8.690;2023-04-27T06:53:15;100773.44;;;13.12;41.67
43281;BME280;62175;49.416;8.690;2023-04-27T06:55:42;100777.83;;;12.74;42.07
43281;BME280;62175;49.416;8.690;2023-04-27T06:58:09;100776.64;;;13.12;40.88
43281;BME280;62175;49.416;8.690;2023-04-27T07:00:36;100776.73;;;13.01;41.88
43281;BME280;62175;49.416;8.690;2023-04-27T07:03:04;100776.93;;;13.33;41.49
43281;BME280;62175;49.416;8.690;2023-04-27T07:05:33;100777.96;;;12.95;41.08
43281;BME280;62175;49.416;8.690;2023-04-27T07:08:00;100775.20;;;13.28;41.62
43281;BME280;62175;49.416;8.690;2023-04-27T07:10:27;100771.61;;;13.43;41.87
43281;BME280;62175;49.416;8.690;2023-04-27T07:12:54;100770.39;;;13.55;41.74
43281;BME280;62175;49.416;8.690;2023-04-27T07:15:21;100775.63;;;13.07;42.74
43281;BME280;62175;49.416;8.690;2023-04-27T07:17:50;100778.89;;;13.10;43.54
43281;BME280;62175;49.416;8.690;2023-04-27T07:20:17;100778.88;;;13.27;43.18
43281;BME280;62175;49.416;8.690;2023-04-27T07:22:44;100779.84;;;13.22;45.18
43281;BME280;62175;49.416;8.690;2023-04-27T07:25:12;100784.24;;;12.89;44.88
43281;BME280;62175;49.416;8.690;2023-04-27T07:27:39;100780.57;;;13.08;44.95
43281;BME280;62175;49.416;8.690;2023-04-27T07:30:08;100777.36;;;12.99;43.38
43281;BME280;62175;49.416;8.690;2023-04-27T07:32:37;100778.65;;;12.91;44.29
43281;BME280;62175;49.416;8.690;2023-04-27T07:35:05;100774.95;;;13.19;43.48
43281;BME280;62175;49.416;8.690;2023-04-27T07:37:32;100775.25;;;13.28;43.21
43281;BME280;62175;49.416;8.690;2023-04-27T07:40:00;100776.45;;;13.13;43.99
43281;BME280;62175;49.416;8.690;2023-04-27T07:42:27;100778.95;;;13.26;44.22
43281;BME280;62175;49.416;8.690;2023-04-27T07:44:55;100771.03;;;13.28;44.91
43281;BME280;62175;49.416;8.690;2023-04-27T07:47:22;100776.85;;;13.42;44.83
43281;BME280;62175;49.416;8.690;2023-04-27T07:49:49;100780.87;;;13.40;42.73
43281;BME280;62175;49.416;8.690;2023-04-27T07:52:17;100781.92;;;13.37;43.21
43281;BME280;62175;49.416;8.690;2023-04-27T07:54:45;100778.63;;;13.45;43.68
43281;BME280;62175;49.416;8.690;2023-04-27T07:57:12;100775.66;;;13.53;43.13
43281;BME280;62175;49.416;8.690;2023-04-27T07:59:39;100776.09;;;13.31;44.29
43281;BME280;62175;49.416;8.690;2023-04-27T08:02:06;100770.71;;;13.27;43.11
43281;BME280;62175;49.416;8.690;2023-04-27T08:04:33;100764.95;;;13.33;42.32
43281;BME280;62175;49.416;8.690;2023-04-27T08:07:00;100760.61;;;13.40;41.66
43281;BME280;62175;49.416;8.690;2023-04-27T08:09:27;100755.67;;;13.44;41.26
43281;BME280;62175;49.416;8.690;2023-04-27T08:11:54;100757.02;;;13.32;42.03
43281;BME280;62175;49.416;8.690;2023-04-27T08:14:21;100757.76;;;13.52;40.32
43281;BME280;62175;49.416;8.690;2023-04-27T08:16:48;100761.05;;;13.58;40.56
43281;BME280;62175;49.416;8.690;2023-04-27T08:19:15;100760.97;;;13.31;41.42
43281;BME280;62175;49.416;8.690;2023-04-27T08:21:42;100757.66;;;13.45;41.04
43281;BME280;62175;49.416;8.690;2023-04-27T08:24:10;100755.89;;;13.46;40.65
43281;BME280;62175;49.416;8.690;2023-04-27T08:26:37;100754.35;;;13.37;39.54
43281;BME280;62175;49.416;8.690;2023-04-27T08:29:04;100753.72;;;13.58;39.24
43281;BME280;62175;49.416;8.690;2023-04-27T08:31:31;100756.09;;;13.57;40.60
43281;BME280;62175;49.416;8.690;2023-04-27T08:33:58;100752.72;;;13.47;40.45
43281;BME280;62175;49.416;8.690;2023-04-27T08:36:26;100751.72;;;13.79;41.12
43281;BME280;62175;49.416;8.690;2023-04-27T08:38:53;100752.79;;;13.57;41.63
43281;BME280;62175;49.416;8.690;2023-04-27T08:41:22;100747.68;;;13.67;39.89
43281;BME280;62175;49.416;8.690;2023-04-27T08:43:50;100740.26;;;13.67;40.71
43281;BME280;62175;49.416;8.690;2023-04-27T08:46:17;100738.13;;;13.67;42.42
43281;BME280;62175;49.416;8.690;2023-04-27T08:48:45;100739.28;;;14.10;44.75
43281;BME280;62175;49.416;8.690;2023-04-27T08:51:14;100741.71;;;13.97;43.32
43281;BME280;62175;49.416;8.690;2023-04-27T08:53:47;100742.00;;;13.98;42.31
43281;BME280;62175;49.416;8.690;2023-04-27T08:56:15;100747.64;;;13.75;42.56
43281;BME280;62175;49.416;8.690;2023-04-27T08:58:42;100744.46;;;14.00;39.96
43281;BME280;62175;49.416;8.690;2023-04-27T09:01:09;100741.99;;;14.02;43.97
43281;BME280;62175;49.416;8.690;2023-04-27T09:03:37;100741.19;;;14.07;42.11
43281;BME280;62175;49.416;8.690;2023-04-27T09:06:04;100743.08;;;14.18;43.10
43281;BME280;62175;49.416;8.690;2023-04-27T09:08:48;100742.40;;;14.19;41.17
43281;BME280;62175;49.416;8.690;2023-04-27T09:11:27;100742.30;;;14.16;43.08
43281;BME280;62175;49.416;8.690;2023-04-27T09:13:55;100744.75;;;13.96;40.78
43281;BME280;62175;49.416;8.690;2023-04-27T09:16:24;100748.47;;;14.07;42.03
43281;BME280;62175;49.416;8.690;2023-04-27T09:18:51;100746.23;;;14.20;43.03
43281;BME280;62175;49.416;8.690;2023-04-27T09:21:23;100747.36;;;14.07;41.40
43281;BME280;62175;49.416;8.690;2023-04-27T09:23:50;100744.44;;;13.96;41.45
43281;BME280;62175;49.416;8.690;2023-04-27T09:26:19;100742.14;;;14.13;41.33
43281;BME280;62175;49.416;8.690;2023-04-27T09:28:49;100739.14;;;14.30;42.96
43281;BME280;62175;49.416;8.690;2023-04-27T09:31:16;100741.13;;;14.15;42.88
43281;BME280;62175;49.416;8.690;2023-04-27T09:33:45;100736.79;;;14.41;43.42
43281;BME280;62175;49.416;8.690;2023-04-27T09:36:13;100735.09;;;13.80;41.98
43281;BME280;62175;49.416;8.690;2023-04-27T09:38:40;100732.87;;;14.41;42.11
43281;BME280;62175;49.416;8.690;2023-04-27T09:41:08;100727.58;;;14.38;43.68
43281;BME280;62175;49.416;8.690;2023-04-27T09:43:35;100723.40;;;14.13;46.45
43281;BME280;62175;49.416;8.690;2023-04-27T09:46:03;100720.05;;;14.20;44.44
43281;BME280;62175;49.416;8.690;2023-04-27T09:48:30;100720.55;;;14.12;43.72
43281;BME280;62175;49.416;8.690;2023-04-27T09:50:57;100719.68;;;14.17;42.94
43281;BME280;62175;49.416;8.690;2023-04-27T09:53:27;100720.11;;;14.44;42.57
43281;BME280;62175;49.416;8.690;2023-04-27T09:56:07;100714.43;;;14.29;41.47
43281;BME280;62175;49.416;8.690;2023-04-27T09:58:50;100709.80;;;14.61;41.45
43281;BME280;62175;49.416;8.690;2023-04-27T10:01:25;100710.09;;;14.51;40.52
43281;BME280;62175;49.416;8.690;2023-04-27T10:04:08;100717.05;;;14.60;40.81
43281;BME280;62175;49.416;8.690;2023-04-27T10:06:52;100715.02;;;14.36;40.18
43281;BME280;62175;49.416;8.690;2023-04-27T10:09:24;100710.10;;;14.58;40.39
43281;BME280;62175;49.416;8.690;2023-04-27T10:11:53;100709.43;;;14.91;40.86
43281;BME280;62175;49.416;8.690;2023-04-27T10:14:22;100706.51;;;14.63;40.55
43281;BME280;62175;49.416;8.690;2023-04-27T10:16:51;100713.17;;;14.50;41.24
43281;BME280;62175;49.416;8.690;2023-04-27T10:19:19;100709.38;;;14.65;40.45
43281;BME280;62175;49.416;8.690;2023-04-27T10:21:54;100711.17;;;14.49;40.24
43281;BME280;62175;49.416;8.690;2023-04-27T10:24:39;100714.59;;;14.88;40.06
43281;BME280;62175;49.416;8.690;2023-04-27T10:27:08;100710.53;;;14.71;40.93
43281;BME280;62175;49.416;8.690;2023-04-27T10:29:37;100703.00;;;14.71;40.86
43281;BME280;62175;49.416;8.690;2023-04-27T10:32:06;100709.93;;;14.74;41.13
43281;BME280;62175;49.416;8.690;2023-04-27T10:34:34;100705.28;;;14.98;40.52
43281;BME280;62175;49.416;8.690;2023-04-27T10:37:05;100708.79;;;14.85;40.94
43281;BME280;62175;49.416;8.690;2023-04-27T10:39:35;100706.88;;;15.02;39.54
43281;BME280;62175;49.416;8.690;2023-04-27T10:42:03;100708.24;;;14.93;41.38
43281;BME280;62175;49.416;8.690;2023-04-27T10:44:32;100706.91;;;14.84;42.47
43281;BME280;62175;49.416;8.690;2023-04-27T10:47:01;100704.51;;;14.82;40.29
43281;BME280;62175;49.416;8.690;2023-04-27T10:49:29;100704.60;;;15.41;38.88
43281;BME280;62175;49.416;8.690;2023-04-27T10:52:04;100709.07;;;14.81;39.42
43281;BME280;62175;49.416;8.690;2023-04-27T10:54:32;100699.54;;;15.07;39.74
43281;BME280;62175;49.416;8.690;2023-04-27T10:57:10;100696.49;;;14.97;39.80
43281;BME280;62175;49.416;8.690;2023-04-27T11:00:22;100693.41;;;15.08;40.41
43281;BME280;62175;49.416;8.690;2023-04-27T11:02:50;100694.11;;;15.13;40.68
43281;BME280;62175;49.416;8.690;2023-04-27T11:05:18;100689.10;;;15.16;40.55
43281;BME280;62175;49.416;8.690;2023-04-27T11:07:47;100687.46;;;15.27;40.60
43281;BME280;62175;49.416;8.690;2023-04-27T11:10:15;100686.84;;;15.08;40.98
43281;BME280;62175;49.416;8.690;2023-04-27T11:12:42;100687.15;;;15.01;40.19
43281;BME280;62175;49.416;8.690;2023-04-27T11:15:10;100687.25;;;15.33;38.59
43281;BME280;62175;49.416;8.690;2023-04-27T11:17:37;100685.82;;;15.67;38.15
43281;BME280;62175;49.416;8.690;2023-04-27T11:20:06;100686.89;;;15.45;36.66
43281;BME280;62175;49.416;8.690;2023-04-27T11:22:43;100686.34;;;15.63;35.19
43281;BME280;62175;49.416;8.690;2023-04-27T11:25:12;100679.99;;;15.55;35.57
43281;BME280;62175;49.416;8.690;2023-04-27T11:27:40;100678.56;;;15.52;36.03
43281;BME280;62175;49.416;8.690;2023-04-27T11:30:18;100676.51;;;15.77;36.36
43281;BME280;62175;49.416;8.690;2023-04-27T11:32:47;100670.40;;;15.71;36.95
43281;BME280;62175;49.416;8.690;2023-04-27T11:35:18;100665.35;;;15.86;37.20
43281;BME280;62175;49.416;8.690;2023-04-27T22:02:53;100359.63;;;15.97;42.80
43281;BME280;62175;49.416;8.690;2023-04-27T22:05:20;100356.27;;;16.32;40.63
43281;BME280;62175;49.416;8.690;2023-04-27T22:07:48;100360.07;;;16.39;41.88
43281;BME280;62175;49.416;8.690;2023-04-27T22:11:29;100359.93;;;16.51;43.84
43281;BME280;62175;49.416;8.690;2023-04-27T22:13:56;100362.09;;;16.46;42.60
43281;BME280;62175;49.416;8.690;2023-04-27T22:16:23;100360.89;;;16.46;43.52
43281;BME280;62175;49.416;8.690;2023-04-27T22:18:50;100353.81;;;16.34;43.66
43281;BME280;62175;49.416;8.690;2023-04-27T22:21:18;100353.15;;;16.25;42.20
43281;BME280;62175;49.416;8.690;2023-04-27T22:23:46;100358.77;;;16.19;40.31
43281;BME280;62175;49.416;8.690;2023-04-27T22:26:13;100360.06;;;16.19;41.13
43281;BME280;62175;49.416;8.690;2023-04-27T22:28:40;100361.47;;;16.19;40.68
43281;BME280;62175;49.416;8.690;2023-04-27T22:31:08;100363.22;;;16.20;41.57
43281;BME280;62175;49.416;8.690;2023-04-27T22:33:35;100363.35;;;16.19;42.10
43281;BME280;62175;49.416;8.690;2023-04-27T22:36:02;100364.64;;;16.12;41.99
43281;BME280;62175;49.416;8.690;2023-04-27T22:38:30;100361.73;;;16.08;42.83
43281;BME280;62175;49.416;8.690;2023-04-27T22:40:58;100362.03;;;16.09;42.65
43281;BME280;62175;49.416;8.690;2023-04-27T22:43:25;100365.27;;;15.96;42.11
43281;BME280;62175;49.416;8.690;2023-04-27T22:45:52;100358.95;;;16.18;41.69
43281;BME280;62175;49.416;8.690;2023-04-27T22:48:19;100360.19;;;16.18;42.60
43281;BME280;62175;49.416;8.690;2023-04-27T22:50:46;100357.81;;;16.16;42.57
43281;BME280;62175;49.416;8.690;2023-04-27T22:53:13;100356.64;;;16.14;41.73
43281;BME280;62175;49.416;8.690;2023-04-27T22:55:41;100354.47;;;16.50;41.51
43281;BME280;62175;49.416;8.690;2023-04-27T22:58:08;100352.25;;;16.14;42.57
43281;BME280;62175;49.416;8.690;2023-04-27T23:00:35;100352.56;;;16.16;41.31
43281;BME280;62175;49.416;8.690;2023-04-27T23:03:02;100351.33;;;15.94;42.49
43281;BME280;62175;49.416;8.690;2023-04-27T23:05:29;100347.48;;;16.46;42.53
43281;BME280;62175;49.416;8.690;2023-04-27T23:07:56;100347.47;;;16.14;41.92
43281;BME280;62175;49.416;8.690;2023-04-27T23:10:23;100345.77;;;16.07;43.22
43281;BME280;62175;49.416;8.690;2023-04-27T23:12:50;100343.19;;;16.11;42.43
43281;BME280;62175;49.416;8.690;2023-04-27T23:15:17;100336.96;;;16.18;41.09
43281;BME280;62175;49.416;8.690;2023-04-27T23:17:44;100336.03;;;15.99;41.28
43281;BME280;62175;49.416;8.690;2023-04-27T23:20:12;100326.13;;;16.21;41.04